Aktualne dane pomiarowe

Uwaga, wersja testowa! Automatyczne pobieranie danych za pomocą narzędzi lub skryptów to umożliwiających jest zabronione.

Dane meteo z obszaru Polski uzyskane na podstawie depesz SYNOP pobieranych co godzinę z NWS. Najedź myszką na symbol przedstawiony w tabeli, aby uzyskać informacje co do jego znaczenia. Prosimy pamiętać, że to testowa wersja strony, która jeszcze nie jest ukończona. Stworzono również jest krótki FAQ dotyczący korzystania z tej podstrony Anomalie temperatury w chwili obecnej odniesione są do okresu referencyjnego 1951-2016. Okres ten będzie później zmieniony na 1981-2010. Kliknij ikonę aby pobrać plik CSV. Kliknij ikonę aby wygenerować mapę synoptyczną dla danego terminu.

Wybierz Datę:    

        

Kalisz (12435)

Dane terminowe dla wybranej stacji. Kliknij datę, aby otrzymać dane z tego terminu dla wszystkich stacji.

TemperaturaZachmurzenieWiatrCiśnienieOpadyPogoda
 Data t td wb tx tn tg rh  Nt Nl Cl Cm Ch ws wd g1 g2 wx mslp ppp ch 24h 12h t ww ww w1 w2  
2019-07-20 23:00:00 21.3 13.7 16.4--- 6225.0wx-wxwx2wx--21014.4 998.1 -0.2---------
2019-07-20 22:00:00 22.6 13.4 16.8--- 5625.0wx-wxwx3wx--31014.6 998.4 0.3---------
2019-07-20 21:00:00 23.4 13.0 16.9--- 5225.0wx-wx2wx---1014.8 998.6 0.6---------
2019-07-20 20:00:00 24.6 12.5 17.2--- 4725.0wx-wx2wx--21014.4 998.3 0.3---------
2019-07-20 19:00:00 25.8 13.0 17.9--- 4530.0wx-wx2wx--21014.2 998.1 -0.1---------
2019-07-20 18:00:00 27.3 11.3 17.7 29.3 19.3- 3740.0wx-wx1wx--11014.0 998.0 -0.5- 0.012------
2019-07-20 17:00:00 28.6 11.6 18.3--- 3540.0wxwxwxwx2wx--21013.9 998.0 -0.8---------
2019-07-20 16:00:00 28.8 10.9 18.1--- 3335.0wxwxwxwx4wx--41014.1 998.2 -0.7---------
2019-07-20 15:00:00 28.5 11.5 18.3--- 3540.0wxwxwxwx2wx---1014.4 998.5 -0.8---------
2019-07-20 14:00:00 28.5 11.5 18.3--- 3520.0wxwxwxwx3wx--31014.7 998.8 -0.9---------
2019-07-20 13:00:00 28.5 12.0 18.5--- 3620.0wxwxwxwx3wx--31014.8 998.9 -0.9---------
2019-07-20 12:00:00 27.1 10.7 17.3--- 3620.0wxwxwxwx4wx--41015.3 999.3 -0.6- 0.06------
2019-07-20 11:00:00 27.0 12.6 18.2--- 4121.0wxwxwxwx3wx--31015.7 999.7 -0.2---------
2019-07-20 10:00:00 26.3 13.4 18.3--- 4530.0wxwxwxwx3wx--31015.9 999.8 -0.1---------
2019-07-20 09:00:00 24.8 14.0 18.0--- 5130.0wxwxwxwx3wx--31016.0 999.9 0.1---------
2019-07-20 08:00:00 23.9 14.3 17.8--- 5530.0wxwxwxwx3wx--31016.1 999.9 0.3---------
2019-07-20 07:00:00 21.5 15.1 17.3--- 6724.0wx-wxwx1wx--11016.2 999.9 0.5---------
2019-07-20 06:00:00 19.3 15.4 16.6 23.0 16.1 13 7816.0wxwxwxwx0---01016.2 999.8 0.6 0.2 0.012----- 5.4
2019-07-20 05:00:00 18.3 15.5 16.3--- 8415.0wxwxwxwx2wx---1016.1 999.6 0.7---------
2019-07-20 04:00:00 16.7 15.1 15.6--- 9011.0wx-wx2wx--21016.0 999.4 0.7---------
2019-07-20 03:00:00 16.1 14.8 15.2--- 928.0wx-wx1wx--11015.8 999.2 0.4---wx---
2019-07-20 02:00:00 16.6 15.0 15.5--- 9011.0wx-wxwx1wx--11015.5 998.9 0.3---------
2019-07-20 01:00:00 17.1 14.7 15.4--- 8614.0wx-wxwx1wx--11015.3 998.7 0.2---------
2019-07-20 00:00:00 17.9 14.4 15.5--- 8018.0wx-wx1wx--11015.3 998.8 0.4- 0.06------
2019-07-19 23:00:00 18.7 14.2 15.7--- 7524.0wxwxwxwx1wx---1015.1 998.6 0.3---------
2019-07-19 22:00:00 18.9 14.2 15.8--- 7420.0wxwxwxwx2wx--21014.9 998.5 0.5---------
2019-07-19 21:00:00 20.2 13.9 16.1--- 6730.0wxwxwxwx2wx--21014.8 998.4 0.7---------
2019-07-19 20:00:00 20.4 14.1 16.3--- 6735.0wx-wx2wx--21014.7 998.3 0.7---------
2019-07-19 19:00:00 21.1 14.0 16.5--- 6430.0wxwxwxwx2wx--21014.3 998.0 0.6---------
2019-07-19 18:00:00 22.8 13.3 16.8 28.1 19.3- 5535.0wxwxwx2wx-1121013.9 997.7 0.4- 0.212wx-w1--
2019-07-19 17:00:00 22.0 14.4 17.1--- 6240.0wxwxwxwx2wx-921013.9 997.6 0.4---wx---
2019-07-19 16:00:00 25.1 11.6 17.0--- 4335.0wxwxwxwx2wx--21013.5 997.4 0.2---------
2019-07-19 15:00:00 25.2 11.4 16.9--- 4240.0wxwxwxwx2wx-1121013.4 997.3 -0.1---------
2019-07-19 14:00:00 25.4 12.6 17.5--- 4530.0wxwxwxwx4wx-1141013.3 997.2 -0.1---------
2019-07-19 13:00:00 27.1 9.4 16.8--- 3340.0wxwxwxwx3wx--31013.2 997.2 0.3---------
2019-07-19 12:00:00 25.1 9.8 16.1--- 3835.0wx-wx2wx--21013.5 997.4 0.4- 0.26wx-w1--
2019-07-19 11:00:00 25.0 10.1 16.2--- 3940.0wxwxwxwx6wx--61013.4 997.3 0.2---wx---
2019-07-19 10:00:00 26.3 10.0 16.7--- 3635.0wxwxwxwx2wx--21012.9 996.9 -0.1---------
2019-07-19 09:00:00 25.7 11.1 17.0--- 4030.0wx-wxwx3wx--31013.0 997.0 0.0---------
2019-07-19 08:00:00 24.6 10.1 16.1--- 4030.0wx-wx3wx--31013.2 997.1 0.0---------
2019-07-19 07:00:00 23.1 10.5 15.6--- 4530.0wx-wxwx3wx--31013.2 997.0 0.0---------
2019-07-19 06:00:00 19.3 10.8 14.1 23.6 13.2 10 5825.0wx-wxwx2wx--21013.4 997.0 0.0- 0.012----- 11.4
2019-07-19 05:00:00 15.3 9.2 11.6--- 6723.0wx-wxwx2wx--21013.7 997.1 0.1---------
2019-07-19 04:00:00 14.0 9.0 10.9--- 7225.0wx-wxwx3wx--31013.7 997.0 0.0---------
2019-07-19 03:00:00 13.4 8.7 10.5--- 7327.0wx-wxwx3wx--31013.7 997.0 -0.1---------
2019-07-19 02:00:00 14.3 8.3 10.7--- 6730.0wx-wxwx2wx--21013.7 997.0 -0.1---------
2019-07-19 01:00:00 14.6 8.5 10.9--- 6725.0wx-wx3wx--31013.7 997.0 0.1---------
2019-07-19 00:00:00 15.2 9.1 11.5--- 6720.0wx-wx2wx--21013.7 997.1 0.4- 0.06------
1.2 ms

 

Print Friendly, PDF & Email